sensor_id;sensor_type;location;lat;lon;timestamp;P1;durP1;ratioP1;P2;durP2;ratioP2
35324;SDS011;35135;47.510;19.036;2024-01-30T00:01:49;55.53;;;49.83;;
35324;SDS011;35135;47.510;19.036;2024-01-30T00:04:15;53.17;;;47.65;;
35324;SDS011;35135;47.510;19.036;2024-01-30T00:06:42;52.80;;;47.40;;
35324;SDS011;35135;47.510;19.036;2024-01-30T00:09:08;52.00;;;46.70;;
35324;SDS011;35135;47.510;19.036;2024-01-30T00:11:35;50.60;;;45.35;;
35324;SDS011;35135;47.510;19.036;2024-01-30T00:14:01;49.97;;;44.92;;
35324;SDS011;35135;47.510;19.036;2024-01-30T00:16:28;49.38;;;44.30;;
35324;SDS011;35135;47.510;19.036;2024-01-30T00:18:54;48.63;;;43.63;;
35324;SDS011;35135;47.510;19.036;2024-01-30T00:21:20;47.17;;;42.42;;
35324;SDS011;35135;47.510;19.036;2024-01-30T00:23:46;47.97;;;43.10;;
35324;SDS011;35135;47.510;19.036;2024-01-30T00:26:12;45.95;;;41.35;;
35324;SDS011;35135;47.510;19.036;2024-01-30T00:28:40;43.60;;;39.20;;
35324;SDS011;35135;47.510;19.036;2024-01-30T00:31:08;45.35;;;40.75;;
35324;SDS011;35135;47.510;19.036;2024-01-30T00:33:40;42.67;;;38.45;;
35324;SDS011;35135;47.510;19.036;2024-01-30T00:36:07;43.20;;;38.80;;
35324;SDS011;35135;47.510;19.036;2024-01-30T00:38:34;42.17;;;37.83;;
35324;SDS011;35135;47.510;19.036;2024-01-30T00:41:00;41.75;;;37.45;;
35324;SDS011;35135;47.510;19.036;2024-01-30T00:43:27;41.90;;;37.58;;
35324;SDS011;35135;47.510;19.036;2024-01-30T00:45:53;40.33;;;36.22;;
35324;SDS011;35135;47.510;19.036;2024-01-30T00:48:19;39.95;;;35.95;;
35324;SDS011;35135;47.510;19.036;2024-01-30T00:50:45;38.97;;;35.05;;
35324;SDS011;35135;47.510;19.036;2024-01-30T00:53:11;38.90;;;35.00;;
35324;SDS011;35135;47.510;19.036;2024-01-30T00:55:36;38.08;;;34.25;;
35324;SDS011;35135;47.510;19.036;2024-01-30T00:58:02;37.17;;;33.42;;
35324;SDS011;35135;47.510;19.036;2024-01-30T01:00:28;36.40;;;32.75;;
35324;SDS011;35135;47.510;19.036;2024-01-30T01:02:54;36.15;;;32.42;;
35324;SDS011;35135;47.510;19.036;2024-01-30T01:05:20;36.00;;;32.50;;
35324;SDS011;35135;47.510;19.036;2024-01-30T01:07:46;34.38;;;30.88;;
35324;SDS011;35135;47.510;19.036;2024-01-30T01:10:15;34.22;;;30.83;;
35324;SDS011;35135;47.510;19.036;2024-01-30T01:12:42;34.05;;;30.58;;
35324;SDS011;35135;47.510;19.036;2024-01-30T01:15:08;34.65;;;31.15;;
35324;SDS011;35135;47.510;19.036;2024-01-30T01:17:36;34.13;;;30.55;;
35324;SDS011;35135;47.510;19.036;2024-01-30T01:20:03;31.67;;;28.38;;
35324;SDS011;35135;47.510;19.036;2024-01-30T01:22:31;31.08;;;27.88;;
35324;SDS011;35135;47.510;19.036;2024-01-30T01:24:57;30.33;;;27.35;;
35324;SDS011;35135;47.510;19.036;2024-01-30T01:27:23;30.08;;;27.08;;
35324;SDS011;35135;47.510;19.036;2024-01-30T01:29:49;30.67;;;27.67;;
35324;SDS011;35135;47.510;19.036;2024-01-30T01:32:16;29.52;;;26.52;;
35324;SDS011;35135;47.510;19.036;2024-01-30T01:34:41;29.13;;;26.23;;
35324;SDS011;35135;47.510;19.036;2024-01-30T01:37:07;28.35;;;25.42;;
35324;SDS011;35135;47.510;19.036;2024-01-30T01:39:33;27.10;;;24.50;;
35324;SDS011;35135;47.510;19.036;2024-01-30T01:41:58;25.98;;;23.38;;
35324;SDS011;35135;47.510;19.036;2024-01-30T01:44:24;26.77;;;24.08;;
35324;SDS011;35135;47.510;19.036;2024-01-30T01:46:50;26.55;;;23.85;;
35324;SDS011;35135;47.510;19.036;2024-01-30T01:49:17;25.42;;;22.88;;
35324;SDS011;35135;47.510;19.036;2024-01-30T01:51:44;25.60;;;23.10;;
35324;SDS011;35135;47.510;19.036;2024-01-30T01:54:12;23.77;;;21.40;;
35324;SDS011;35135;47.510;19.036;2024-01-30T01:56:40;25.48;;;22.95;;
35324;SDS011;35135;47.510;19.036;2024-01-30T01:59:08;24.50;;;22.10;;
35324;SDS011;35135;47.510;19.036;2024-01-30T02:01:34;25.30;;;22.80;;
35324;SDS011;35135;47.510;19.036;2024-01-30T02:04:01;24.00;;;21.50;;
35324;SDS011;35135;47.510;19.036;2024-01-30T02:06:27;23.98;;;21.48;;
35324;SDS011;35135;47.510;19.036;2024-01-30T02:08:53;22.38;;;20.17;;
35324;SDS011;35135;47.510;19.036;2024-01-30T02:11:19;22.40;;;20.30;;
35324;SDS011;35135;47.510;19.036;2024-01-30T02:13:45;23.98;;;21.58;;
35324;SDS011;35135;47.510;19.036;2024-01-30T02:16:11;21.58;;;19.48;;
35324;SDS011;35135;47.510;19.036;2024-01-30T02:18:37;22.30;;;20.10;;
35324;SDS011;35135;47.510;19.036;2024-01-30T02:21:07;21.27;;;19.27;;
35324;SDS011;35135;47.510;19.036;2024-01-30T02:23:33;22.05;;;19.85;;
35324;SDS011;35135;47.510;19.036;2024-01-30T02:25:59;21.05;;;18.85;;
35324;SDS011;35135;47.510;19.036;2024-01-30T02:28:26;20.83;;;18.73;;
35324;SDS011;35135;47.510;19.036;2024-01-30T02:30:52;19.75;;;17.75;;
35324;SDS011;35135;47.510;19.036;2024-01-30T02:33:18;19.23;;;17.33;;
35324;SDS011;35135;47.510;19.036;2024-01-30T02:35:44;20.05;;;18.05;;
35324;SDS011;35135;47.510;19.036;2024-01-30T02:38:10;19.15;;;17.35;;
35324;SDS011;35135;47.510;19.036;2024-01-30T02:40:35;19.15;;;17.15;;
35324;SDS011;35135;47.510;19.036;2024-01-30T02:43:01;18.40;;;16.60;;
35324;SDS011;35135;47.510;19.036;2024-01-30T02:45:28;18.83;;;16.92;;
35324;SDS011;35135;47.510;19.036;2024-01-30T02:47:53;18.58;;;16.77;;
35324;SDS011;35135;47.510;19.036;2024-01-30T02:50:19;17.25;;;15.52;;
35324;SDS011;35135;47.510;19.036;2024-01-30T02:52:45;17.58;;;15.82;;
35324;SDS011;35135;47.510;19.036;2024-01-30T02:55:11;17.25;;;15.55;;
35324;SDS011;35135;47.510;19.036;2024-01-30T02:57:37;17.60;;;15.90;;
35324;SDS011;35135;47.510;19.036;2024-01-30T03:00:04;16.73;;;15.02;;
35324;SDS011;35135;47.510;19.036;2024-01-30T03:02:31;17.35;;;15.65;;
35324;SDS011;35135;47.510;19.036;2024-01-30T03:04:57;15.82;;;14.32;;
35324;SDS011;35135;47.510;19.036;2024-01-30T03:07:23;16.40;;;14.80;;
35324;SDS011;35135;47.510;19.036;2024-01-30T03:09:49;16.25;;;14.63;;
35324;SDS011;35135;47.510;19.036;2024-01-30T03:12:14;16.35;;;14.65;;
35324;SDS011;35135;47.510;19.036;2024-01-30T03:14:40;15.65;;;14.00;;
35324;SDS011;35135;47.510;19.036;2024-01-30T03:17:06;15.55;;;14.05;;
35324;SDS011;35135;47.510;19.036;2024-01-30T03:19:31;15.45;;;13.85;;
35324;SDS011;35135;47.510;19.036;2024-01-30T03:21:57;15.68;;;14.07;;
35324;SDS011;35135;47.510;19.036;2024-01-30T03:24:23;14.43;;;13.02;;
35324;SDS011;35135;47.510;19.036;2024-01-30T03:26:48;14.45;;;13.00;;
35324;SDS011;35135;47.510;19.036;2024-01-30T03:29:14;15.05;;;13.55;;
35324;SDS011;35135;47.510;19.036;2024-01-30T03:31:40;14.38;;;12.98;;
35324;SDS011;35135;47.510;19.036;2024-01-30T03:34:06;14.35;;;12.80;;
35324;SDS011;35135;47.510;19.036;2024-01-30T03:36:31;13.13;;;11.82;;
35324;SDS011;35135;47.510;19.036;2024-01-30T03:38:59;13.55;;;12.18;;
35324;SDS011;35135;47.510;19.036;2024-01-30T03:41:25;13.35;;;11.95;;
35324;SDS011;35135;47.510;19.036;2024-01-30T03:43:51;13.27;;;11.98;;
35324;SDS011;35135;47.510;19.036;2024-01-30T03:46:16;13.55;;;12.25;;
35324;SDS011;35135;47.510;19.036;2024-01-30T03:48:42;12.75;;;11.55;;
35324;SDS011;35135;47.510;19.036;2024-01-30T03:51:08;13.05;;;11.82;;
35324;SDS011;35135;47.510;19.036;2024-01-30T03:53:39;12.40;;;11.20;;
35324;SDS011;35135;47.510;19.036;2024-01-30T03:56:05;12.80;;;11.50;;
35324;SDS011;35135;47.510;19.036;2024-01-30T03:58:31;12.25;;;11.05;;
35324;SDS011;35135;47.510;19.036;2024-01-30T04:00:56;12.77;;;11.48;;
35324;SDS011;35135;47.510;19.036;2024-01-30T04:03:22;12.43;;;11.23;;
35324;SDS011;35135;47.510;19.036;2024-01-30T04:05:48;12.27;;;11.07;;
35324;SDS011;35135;47.510;19.036;2024-01-30T04:08:13;11.82;;;10.65;;
35324;SDS011;35135;47.510;19.036;2024-01-30T04:10:39;11.52;;;10.38;;
35324;SDS011;35135;47.510;19.036;2024-01-30T04:13:05;11.80;;;10.70;;
35324;SDS011;35135;47.510;19.036;2024-01-30T04:15:31;11.98;;;10.77;;
35324;SDS011;35135;47.510;19.036;2024-01-30T04:17:57;11.73;;;10.52;;
35324;SDS011;35135;47.510;19.036;2024-01-30T04:20:26;11.52;;;10.43;;
35324;SDS011;35135;47.510;19.036;2024-01-30T04:22:52;10.45;;;9.40;;
35324;SDS011;35135;47.510;19.036;2024-01-30T04:25:18;11.10;;;10.00;;
35324;SDS011;35135;47.510;19.036;2024-01-30T04:27:43;9.95;;;8.95;;
35324;SDS011;35135;47.510;19.036;2024-01-30T04:30:09;10.93;;;9.50;;
35324;SDS011;35135;47.510;19.036;2024-01-30T04:32:35;10.13;;;9.13;;
35324;SDS011;35135;47.510;19.036;2024-01-30T04:35:02;10.45;;;9.45;;
35324;SDS011;35135;47.510;19.036;2024-01-30T04:37:28;10.23;;;9.23;;
35324;SDS011;35135;47.510;19.036;2024-01-30T04:39:54;9.98;;;8.93;;
35324;SDS011;35135;47.510;19.036;2024-01-30T04:42:19;10.27;;;9.23;;
35324;SDS011;35135;47.510;19.036;2024-01-30T04:44:45;10.07;;;9.00;;
35324;SDS011;35135;47.510;19.036;2024-01-30T04:47:11;9.38;;;8.48;;
35324;SDS011;35135;47.510;19.036;2024-01-30T04:49:40;9.73;;;8.73;;
35324;SDS011;35135;47.510;19.036;2024-01-30T04:52:06;9.77;;;8.80;;
35324;SDS011;35135;47.510;19.036;2024-01-30T04:54:32;9.48;;;8.57;;
35324;SDS011;35135;47.510;19.036;2024-01-30T04:56:58;8.90;;;7.97;;
35324;SDS011;35135;47.510;19.036;2024-01-30T04:59:24;10.48;;;8.35;;
35324;SDS011;35135;47.510;19.036;2024-01-30T05:01:50;8.55;;;7.72;;
35324;SDS011;35135;47.510;19.036;2024-01-30T05:04:15;9.18;;;8.18;;
35324;SDS011;35135;47.510;19.036;2024-01-30T05:06:41;9.57;;;8.63;;
35324;SDS011;35135;47.510;19.036;2024-01-30T05:09:07;9.35;;;7.93;;
35324;SDS011;35135;47.510;19.036;2024-01-30T05:11:40;8.75;;;7.85;;
35324;SDS011;35135;47.510;19.036;2024-01-30T05:14:06;9.02;;;8.13;;
35324;SDS011;35135;47.510;19.036;2024-01-30T05:16:33;8.68;;;7.75;;
35324;SDS011;35135;47.510;19.036;2024-01-30T05:18:59;8.63;;;7.75;;
35324;SDS011;35135;47.510;19.036;2024-01-30T05:21:25;8.43;;;7.38;;
35324;SDS011;35135;47.510;19.036;2024-01-30T05:23:50;8.88;;;7.97;;
35324;SDS011;35135;47.510;19.036;2024-01-30T05:26:16;15.98;;;7.82;;
35324;SDS011;35135;47.510;19.036;2024-01-30T05:28:42;13.93;;;8.35;;
35324;SDS011;35135;47.510;19.036;2024-01-30T05:31:09;10.63;;;8.48;;
35324;SDS011;35135;47.510;19.036;2024-01-30T05:33:35;13.15;;;8.35;;
35324;SDS011;35135;47.510;19.036;2024-01-30T05:36:01;11.95;;;8.07;;
35324;SDS011;35135;47.510;19.036;2024-01-30T05:38:27;10.02;;;7.57;;
35324;SDS011;35135;47.510;19.036;2024-01-30T05:40:53;9.50;;;7.68;;
35324;SDS011;35135;47.510;19.036;2024-01-30T05:43:19;9.95;;;7.68;;
35324;SDS011;35135;47.510;19.036;2024-01-30T05:45:44;10.43;;;8.10;;
35324;SDS011;35135;47.510;19.036;2024-01-30T05:48:10;11.32;;;9.02;;
35324;SDS011;35135;47.510;19.036;2024-01-30T05:50:36;8.93;;;7.68;;
35324;SDS011;35135;47.510;19.036;2024-01-30T05:53:01;10.82;;;7.85;;
35324;SDS011;35135;47.510;19.036;2024-01-30T05:55:27;8.60;;;7.72;;
35324;SDS011;35135;47.510;19.036;2024-01-30T05:57:53;9.60;;;8.02;;
35324;SDS011;35135;47.510;19.036;2024-01-30T06:00:18;15.02;;;8.57;;
35324;SDS011;35135;47.510;19.036;2024-01-30T06:02:44;10.30;;;8.13;;
35324;SDS011;35135;47.510;19.036;2024-01-30T06:05:10;10.40;;;8.30;;
35324;SDS011;35135;47.510;19.036;2024-01-30T06:07:35;10.23;;;8.40;;
35324;SDS011;35135;47.510;19.036;2024-01-30T06:10:01;12.95;;;9.15;;
35324;SDS011;35135;47.510;19.036;2024-01-30T06:12:28;12.13;;;8.63;;
35324;SDS011;35135;47.510;19.036;2024-01-30T06:14:53;13.35;;;7.88;;
35324;SDS011;35135;47.510;19.036;2024-01-30T06:17:22;12.55;;;9.15;;
35324;SDS011;35135;47.510;19.036;2024-01-30T06:19:48;13.25;;;8.85;;
35324;SDS011;35135;47.510;19.036;2024-01-30T06:22:14;16.20;;;8.77;;
35324;SDS011;35135;47.510;19.036;2024-01-30T06:24:41;16.17;;;9.40;;
35324;SDS011;35135;47.510;19.036;2024-01-30T06:27:06;14.75;;;9.15;;
35324;SDS011;35135;47.510;19.036;2024-01-30T06:29:32;13.80;;;8.98;;
35324;SDS011;35135;47.510;19.036;2024-01-30T06:31:58;13.32;;;9.40;;
35324;SDS011;35135;47.510;19.036;2024-01-30T06:34:24;14.85;;;8.85;;
35324;SDS011;35135;47.510;19.036;2024-01-30T06:36:51;15.55;;;8.65;;
35324;SDS011;35135;47.510;19.036;2024-01-30T06:39:17;14.50;;;8.82;;
35324;SDS011;35135;47.510;19.036;2024-01-30T06:41:43;16.35;;;8.77;;
35324;SDS011;35135;47.510;19.036;2024-01-30T06:44:08;13.45;;;8.68;;
35324;SDS011;35135;47.510;19.036;2024-01-30T06:46:35;11.77;;;8.50;;
35324;SDS011;35135;47.510;19.036;2024-01-30T06:49:00;13.40;;;9.05;;
35324;SDS011;35135;47.510;19.036;2024-01-30T06:51:27;15.18;;;9.48;;
35324;SDS011;35135;47.510;19.036;2024-01-30T06:53:53;14.93;;;9.18;;
35324;SDS011;35135;47.510;19.036;2024-01-30T06:56:19;13.82;;;9.70;;
35324;SDS011;35135;47.510;19.036;2024-01-30T06:58:52;14.35;;;9.65;;
35324;SDS011;35135;47.510;19.036;2024-01-30T07:01:17;14.85;;;9.65;;
35324;SDS011;35135;47.510;19.036;2024-01-30T07:03:43;14.73;;;9.27;;
35324;SDS011;35135;47.510;19.036;2024-01-30T07:06:09;13.57;;;9.30;;
35324;SDS011;35135;47.510;19.036;2024-01-30T07:08:36;13.05;;;8.75;;
35324;SDS011;35135;47.510;19.036;2024-01-30T07:11:04;13.85;;;9.32;;
35324;SDS011;35135;47.510;19.036;2024-01-30T07:13:31;11.50;;;8.95;;
35324;SDS011;35135;47.510;19.036;2024-01-30T07:15:57;12.13;;;9.38;;
35324;SDS011;35135;47.510;19.036;2024-01-30T07:18:22;14.32;;;9.50;;
35324;SDS011;35135;47.510;19.036;2024-01-30T07:20:48;13.40;;;9.75;;
35324;SDS011;35135;47.510;19.036;2024-01-30T07:23:14;14.43;;;9.32;;
35324;SDS011;35135;47.510;19.036;2024-01-30T07:25:45;14.45;;;10.20;;
35324;SDS011;35135;47.510;19.036;2024-01-30T07:28:13;11.32;;;9.55;;
35324;SDS011;35135;47.510;19.036;2024-01-30T07:30:42;10.82;;;8.77;;
35324;SDS011;35135;47.510;19.036;2024-01-30T07:33:08;11.25;;;9.20;;
35324;SDS011;35135;47.510;19.036;2024-01-30T07:35:34;11.15;;;9.80;;
35324;SDS011;35135;47.510;19.036;2024-01-30T07:38:01;13.02;;;9.65;;
35324;SDS011;35135;47.510;19.036;2024-01-30T07:40:27;10.77;;;9.13;;
35324;SDS011;35135;47.510;19.036;2024-01-30T07:42:55;14.32;;;10.15;;
35324;SDS011;35135;47.510;19.036;2024-01-30T07:45:21;11.07;;;9.43;;
35324;SDS011;35135;47.510;19.036;2024-01-30T07:47:50;12.82;;;9.23;;
35324;SDS011;35135;47.510;19.036;2024-01-30T07:50:16;12.90;;;9.85;;
35324;SDS011;35135;47.510;19.036;2024-01-30T07:52:42;11.60;;;9.32;;
35324;SDS011;35135;47.510;19.036;2024-01-30T07:55:08;13.05;;;9.90;;
35324;SDS011;35135;47.510;19.036;2024-01-30T07:57:34;11.90;;;9.13;;
35324;SDS011;35135;47.510;19.036;2024-01-30T08:00:00;10.75;;;9.50;;
35324;SDS011;35135;47.510;19.036;2024-01-30T08:02:26;11.23;;;10.02;;
35324;SDS011;35135;47.510;19.036;2024-01-30T08:04:52;10.80;;;9.63;;
35324;SDS011;35135;47.510;19.036;2024-01-30T08:07:17;11.73;;;9.70;;
35324;SDS011;35135;47.510;19.036;2024-01-30T08:09:43;10.73;;;9.25;;
35324;SDS011;35135;47.510;19.036;2024-01-30T08:12:09;14.45;;;10.18;;
35324;SDS011;35135;47.510;19.036;2024-01-30T08:14:35;11.40;;;9.85;;
35324;SDS011;35135;47.510;19.036;2024-01-30T08:17:00;13.52;;;9.93;;
35324;SDS011;35135;47.510;19.036;2024-01-30T08:19:26;11.05;;;9.35;;
35324;SDS011;35135;47.510;19.036;2024-01-30T08:21:52;12.27;;;10.48;;
35324;SDS011;35135;47.510;19.036;2024-01-30T08:24:17;11.48;;;10.27;;
35324;SDS011;35135;47.510;19.036;2024-01-30T08:26:43;13.57;;;10.45;;
35324;SDS011;35135;47.510;19.036;2024-01-30T08:29:09;11.98;;;9.95;;
35324;SDS011;35135;47.510;19.036;2024-01-30T08:31:34;11.32;;;10.13;;
35324;SDS011;35135;47.510;19.036;2024-01-30T08:34:00;12.98;;;10.32;;
35324;SDS011;35135;47.510;19.036;2024-01-30T08:36:25;11.52;;;10.30;;
35324;SDS011;35135;47.510;19.036;2024-01-30T08:38:51;11.75;;;10.23;;
35324;SDS011;35135;47.510;19.036;2024-01-30T08:41:17;11.80;;;10.60;;
35324;SDS011;35135;47.510;19.036;2024-01-30T08:43:42;10.75;;;9.75;;
35324;SDS011;35135;47.510;19.036;2024-01-30T08:46:09;12.50;;;10.27;;
35324;SDS011;35135;47.510;19.036;2024-01-30T08:48:35;12.15;;;9.90;;
35324;SDS011;35135;47.510;19.036;2024-01-30T08:51:01;11.52;;;10.13;;
35324;SDS011;35135;47.510;19.036;2024-01-30T08:53:27;10.98;;;9.88;;
35324;SDS011;35135;47.510;19.036;2024-01-30T08:55:52;11.38;;;10.05;;
35324;SDS011;35135;47.510;19.036;2024-01-30T08:58:18;11.40;;;10.30;;
35324;SDS011;35135;47.510;19.036;2024-01-30T09:00:44;13.45;;;10.90;;
35324;SDS011;35135;47.510;19.036;2024-01-30T09:03:10;12.25;;;10.90;;
35324;SDS011;35135;47.510;19.036;2024-01-30T09:05:35;12.10;;;10.70;;
35324;SDS011;35135;47.510;19.036;2024-01-30T09:08:01;11.70;;;10.25;;
35324;SDS011;35135;47.510;19.036;2024-01-30T09:10:27;11.02;;;9.93;;
35324;SDS011;35135;47.510;19.036;2024-01-30T09:12:53;12.38;;;9.93;;
35324;SDS011;35135;47.510;19.036;2024-01-30T09:15:19;11.25;;;10.15;;
35324;SDS011;35135;47.510;19.036;2024-01-30T09:17:45;11.85;;;10.68;;
35324;SDS011;35135;47.510;19.036;2024-01-30T09:20:11;11.48;;;10.27;;
35324;SDS011;35135;47.510;19.036;2024-01-30T09:22:36;11.88;;;10.35;;
35324;SDS011;35135;47.510;19.036;2024-01-30T09:25:02;11.23;;;10.13;;
35324;SDS011;35135;47.510;19.036;2024-01-30T09:27:28;11.30;;;10.18;;
35324;SDS011;35135;47.510;19.036;2024-01-30T09:29:54;11.18;;;10.07;;
35324;SDS011;35135;47.510;19.036;2024-01-30T09:32:20;11.20;;;10.00;;
35324;SDS011;35135;47.510;19.036;2024-01-30T09:34:45;12.68;;;10.57;;
35324;SDS011;35135;47.510;19.036;2024-01-30T09:37:11;10.93;;;9.82;;
35324;SDS011;35135;47.510;19.036;2024-01-30T09:39:37;11.25;;;10.02;;
35324;SDS011;35135;47.510;19.036;2024-01-30T09:42:25;11.85;;;10.07;;
35324;SDS011;35135;47.510;19.036;2024-01-30T09:44:57;11.10;;;9.98;;
35324;SDS011;35135;47.510;19.036;2024-01-30T09:47:22;11.65;;;10.45;;
35324;SDS011;35135;47.510;19.036;2024-01-30T09:49:49;11.55;;;10.40;;
35324;SDS011;35135;47.510;19.036;2024-01-30T09:52:16;11.00;;;9.90;;
35324;SDS011;35135;47.510;19.036;2024-01-30T09:54:41;12.15;;;10.68;;
35324;SDS011;35135;47.510;19.036;2024-01-30T09:57:08;11.10;;;10.00;;
35324;SDS011;35135;47.510;19.036;2024-01-30T09:59:34;11.45;;;10.30;;
35324;SDS011;35135;47.510;19.036;2024-01-30T10:02:00;12.05;;;10.70;;
35324;SDS011;35135;47.510;19.036;2024-01-30T10:04:26;10.90;;;9.80;;
35324;SDS011;35135;47.510;19.036;2024-01-30T10:06:51;10.95;;;9.85;;
35324;SDS011;35135;47.510;19.036;2024-01-30T10:09:17;10.82;;;9.75;;
35324;SDS011;35135;47.510;19.036;2024-01-30T10:11:43;11.95;;;10.75;;
35324;SDS011;35135;47.510;19.036;2024-01-30T10:14:09;10.85;;;9.85;;
35324;SDS011;35135;47.510;19.036;2024-01-30T10:16:35;11.20;;;10.20;;
35324;SDS011;35135;47.510;19.036;2024-01-30T10:19:00;11.13;;;10.02;;
35324;SDS011;35135;47.510;19.036;2024-01-30T10:21:26;10.13;;;9.02;;
35324;SDS011;35135;47.510;19.036;2024-01-30T10:26:38;10.65;;;9.52;;
35324;SDS011;35135;47.510;19.036;2024-01-30T10:29:04;10.60;;;9.50;;
35324;SDS011;35135;47.510;19.036;2024-01-30T10:31:30;10.13;;;9.13;;
35324;SDS011;35135;47.510;19.036;2024-01-30T10:33:56;10.60;;;9.63;;
35324;SDS011;35135;47.510;19.036;2024-01-30T10:36:23;11.25;;;10.00;;
35324;SDS011;35135;47.510;19.036;2024-01-30T10:41:26;11.13;;;9.90;;
35324;SDS011;35135;47.510;19.036;2024-01-30T10:44:02;9.73;;;8.82;;
35324;SDS011;35135;47.510;19.036;2024-01-30T10:46:33;12.02;;;9.70;;
35324;SDS011;35135;47.510;19.036;2024-01-30T10:49:02;10.63;;;9.52;;
35324;SDS011;35135;47.510;19.036;2024-01-30T10:51:30;11.15;;;10.05;;
35324;SDS011;35135;47.510;19.036;2024-01-30T10:53:57;9.82;;;8.82;;
35324;SDS011;35135;47.510;19.036;2024-01-30T10:56:24;11.10;;;9.00;;
35324;SDS011;35135;47.510;19.036;2024-01-30T10:58:50;9.95;;;8.95;;
35324;SDS011;35135;47.510;19.036;2024-01-30T11:01:21;10.73;;;9.23;;
35324;SDS011;35135;47.510;19.036;2024-01-30T11:03:53;10.68;;;8.85;;
35324;SDS011;35135;47.510;19.036;2024-01-30T11:06:22;9.37;;;8.47;;
35324;SDS011;35135;47.510;19.036;2024-01-30T11:09:02;10.68;;;9.05;;
35324;SDS011;35135;47.510;19.036;2024-01-30T11:11:47;10.00;;;9.10;;
35324;SDS011;35135;47.510;19.036;2024-01-30T11:14:13;10.20;;;9.20;;
35324;SDS011;35135;47.510;19.036;2024-01-30T11:16:39;10.70;;;9.60;;
35324;SDS011;35135;47.510;19.036;2024-01-30T11:19:05;9.85;;;8.85;;
35324;SDS011;35135;47.510;19.036;2024-01-30T11:21:42;9.85;;;8.88;;
35324;SDS011;35135;47.510;19.036;2024-01-30T11:24:08;9.10;;;8.20;;
35324;SDS011;35135;47.510;19.036;2024-01-30T11:26:34;9.43;;;8.52;;
35324;SDS011;35135;47.510;19.036;2024-01-30T11:29:03;9.60;;;8.68;;
35324;SDS011;35135;47.510;19.036;2024-01-30T11:31:32;9.55;;;8.25;;
35324;SDS011;35135;47.510;19.036;2024-01-30T11:33:57;9.73;;;8.82;;
35324;SDS011;35135;47.510;19.036;2024-01-30T11:36:25;8.75;;;7.85;;
35324;SDS011;35135;47.510;19.036;2024-01-30T11:38:54;9.18;;;8.27;;
35324;SDS011;35135;47.510;19.036;2024-01-30T11:41:20;9.52;;;8.52;;
35324;SDS011;35135;47.510;19.036;2024-01-30T11:43:56;10.02;;;8.80;;
35324;SDS011;35135;47.510;19.036;2024-01-30T11:46:22;8.80;;;7.90;;
35324;SDS011;35135;47.510;19.036;2024-01-30T11:48:50;8.90;;;8.00;;
35324;SDS011;35135;47.510;19.036;2024-01-30T11:51:17;9.25;;;8.35;;
35324;SDS011;35135;47.510;19.036;2024-01-30T11:53:45;9.63;;;8.68;;
35324;SDS011;35135;47.510;19.036;2024-01-30T11:56:15;8.68;;;7.78;;
35324;SDS011;35135;47.510;19.036;2024-01-30T11:58:43;8.95;;;7.70;;
35324;SDS011;35135;47.510;19.036;2024-01-30T12:01:10;8.70;;;7.90;;
35324;SDS011;35135;47.510;19.036;2024-01-30T12:03:36;8.80;;;7.90;;
35324;SDS011;35135;47.510;19.036;2024-01-30T12:06:02;8.88;;;8.07;;
35324;SDS011;35135;47.510;19.036;2024-01-30T12:08:28;9.15;;;8.25;;
35324;SDS011;35135;47.510;19.036;2024-01-30T12:10:57;8.85;;;7.95;;
35324;SDS011;35135;47.510;19.036;2024-01-30T12:13:30;9.48;;;8.68;;
35324;SDS011;35135;47.510;19.036;2024-01-30T12:15:56;8.35;;;7.57;;
35324;SDS011;35135;47.510;19.036;2024-01-30T12:18:22;8.63;;;7.72;;
35324;SDS011;35135;47.510;19.036;2024-01-30T12:20:59;8.30;;;7.40;;
35324;SDS011;35135;47.510;19.036;2024-01-30T12:23:28;8.55;;;7.75;;
35324;SDS011;35135;47.510;19.036;2024-01-30T12:25:54;8.00;;;7.25;;
35324;SDS011;35135;47.510;19.036;2024-01-30T12:28:20;8.32;;;7.20;;
35324;SDS011;35135;47.510;19.036;2024-01-30T12:30:46;8.70;;;7.80;;
35324;SDS011;35135;47.510;19.036;2024-01-30T12:33:18;7.57;;;6.78;;
35324;SDS011;35135;47.510;19.036;2024-01-30T12:35:47;7.63;;;6.82;;
35324;SDS011;35135;47.510;19.036;2024-01-30T12:38:13;7.45;;;6.65;;
35324;SDS011;35135;47.510;19.036;2024-01-30T12:40:40;7.18;;;6.32;;
35324;SDS011;35135;47.510;19.036;2024-01-30T12:43:05;7.05;;;6.35;;
35324;SDS011;35135;47.510;19.036;2024-01-30T12:45:31;7.43;;;6.63;;
35324;SDS011;35135;47.510;19.036;2024-01-30T12:47:57;7.95;;;7.15;;
35324;SDS011;35135;47.510;19.036;2024-01-30T12:50:23;7.55;;;6.75;;
35324;SDS011;35135;47.510;19.036;2024-01-30T12:52:49;7.30;;;6.35;;
35324;SDS011;35135;47.510;19.036;2024-01-30T12:55:15;7.75;;;6.90;;
35324;SDS011;35135;47.510;19.036;2024-01-30T12:57:40;9.63;;;7.10;;
35324;SDS011;35135;47.510;19.036;2024-01-30T13:00:07;10.45;;;7.43;;
35324;SDS011;35135;47.510;19.036;2024-01-30T13:02:33;9.25;;;7.22;;
35324;SDS011;35135;47.510;19.036;2024-01-30T13:05:02;7.03;;;6.20;;
35324;SDS011;35135;47.510;19.036;2024-01-30T13:07:29;8.45;;;6.05;;
35324;SDS011;35135;47.510;19.036;2024-01-30T13:09:55;6.57;;;5.93;;
35324;SDS011;35135;47.510;19.036;2024-01-30T13:12:27;9.10;;;6.32;;
35324;SDS011;35135;47.510;19.036;2024-01-30T13:14:53;7.28;;;5.93;;
35324;SDS011;35135;47.510;19.036;2024-01-30T13:17:19;7.25;;;6.25;;
35324;SDS011;35135;47.510;19.036;2024-01-30T13:19:44;6.85;;;5.63;;
35324;SDS011;35135;47.510;19.036;2024-01-30T13:22:10;6.65;;;5.95;;
35324;SDS011;35135;47.510;19.036;2024-01-30T13:24:36;8.10;;;6.00;;
35324;SDS011;35135;47.510;19.036;2024-01-30T13:27:02;7.75;;;5.28;;
35324;SDS011;35135;47.510;19.036;2024-01-30T13:29:30;6.93;;;5.88;;
35324;SDS011;35135;47.510;19.036;2024-01-30T13:31:56;8.80;;;5.55;;
35324;SDS011;35135;47.510;19.036;2024-01-30T13:34:22;6.53;;;5.55;;
35324;SDS011;35135;47.510;19.036;2024-01-30T13:36:47;7.15;;;6.03;;
35324;SDS011;35135;47.510;19.036;2024-01-30T13:39:14;7.63;;;5.95;;
35324;SDS011;35135;47.510;19.036;2024-01-30T13:41:43;8.07;;;5.75;;
35324;SDS011;35135;47.510;19.036;2024-01-30T13:44:09;6.28;;;5.05;;
35324;SDS011;35135;47.510;19.036;2024-01-30T13:46:34;6.85;;;6.00;;
35324;SDS011;35135;47.510;19.036;2024-01-30T13:49:01;5.90;;;5.30;;
35324;SDS011;35135;47.510;19.036;2024-01-30T13:51:27;7.18;;;5.10;;
35324;SDS011;35135;47.510;19.036;2024-01-30T13:53:53;6.78;;;5.18;;
35324;SDS011;35135;47.510;19.036;2024-01-30T13:56:19;6.32;;;5.18;;
35324;SDS011;35135;47.510;19.036;2024-01-30T13:58:47;5.57;;;4.85;;
35324;SDS011;35135;47.510;19.036;2024-01-30T14:01:14;5.90;;;4.82;;
35324;SDS011;35135;47.510;19.036;2024-01-30T14:03:39;6.20;;;4.90;;
35324;SDS011;35135;47.510;19.036;2024-01-30T14:06:05;5.93;;;5.32;;
35324;SDS011;35135;47.510;19.036;2024-01-30T14:08:31;6.55;;;4.70;;
35324;SDS011;35135;47.510;19.036;2024-01-30T14:10:57;5.80;;;5.07;;
35324;SDS011;35135;47.510;19.036;2024-01-30T14:13:23;8.35;;;5.13;;
35324;SDS011;35135;47.510;19.036;2024-01-30T14:15:50;7.72;;;4.80;;
35324;SDS011;35135;47.510;19.036;2024-01-30T14:18:17;6.78;;;4.47;;
35324;SDS011;35135;47.510;19.036;2024-01-30T14:20:42;5.82;;;5.13;;